sensor_id;sensor_type;location;lat;lon;timestamp;temperature;humidity
44705;DHT22;30431;48.520;9.046;2023-04-24T00:02:22;10.30;99.90
44705;DHT22;30431;48.520;9.046;2023-04-24T00:04:53;10.20;99.90
44705;DHT22;30431;48.520;9.046;2023-04-24T00:07:20;10.20;99.90
44705;DHT22;30431;48.520;9.046;2023-04-24T00:09:51;10.20;99.90
44705;DHT22;30431;48.520;9.046;2023-04-24T00:12:18;10.10;99.90
44705;DHT22;30431;48.520;9.046;2023-04-24T00:14:45;10.10;99.90
44705;DHT22;30431;48.520;9.046;2023-04-24T00:17:14;10.20;99.90
44705;DHT22;30431;48.520;9.046;2023-04-24T00:19:41;10.20;99.90
44705;DHT22;30431;48.520;9.046;2023-04-24T00:22:08;10.20;99.90
44705;DHT22;30431;48.520;9.046;2023-04-24T00:24:35;10.30;99.90
44705;DHT22;30431;48.520;9.046;2023-04-24T00:27:07;10.40;99.90
44705;DHT22;30431;48.520;9.046;2023-04-24T00:29:34;10.40;99.90
44705;DHT22;30431;48.520;9.046;2023-04-24T00:32:01;10.50;99.90
44705;DHT22;30431;48.520;9.046;2023-04-24T00:34:30;10.50;99.90
44705;DHT22;30431;48.520;9.046;2023-04-24T00:36:59;10.50;99.90
44705;DHT22;30431;48.520;9.046;2023-04-24T00:39:27;10.60;99.90
44705;DHT22;30431;48.520;9.046;2023-04-24T00:41:54;10.70;99.90
44705;DHT22;30431;48.520;9.046;2023-04-24T00:44:23;10.70;99.90
44705;DHT22;30431;48.520;9.046;2023-04-24T00:46:54;10.70;99.90
44705;DHT22;30431;48.520;9.046;2023-04-24T00:49:22;10.70;99.90
44705;DHT22;30431;48.520;9.046;2023-04-24T00:51:49;10.70;99.90
44705;DHT22;30431;48.520;9.046;2023-04-24T00:54:18;10.60;99.90
44705;DHT22;30431;48.520;9.046;2023-04-24T00:56:45;10.60;99.90
44705;DHT22;30431;48.520;9.046;2023-04-24T00:59:13;10.50;99.90
44705;DHT22;30431;48.520;9.046;2023-04-24T01:01:40;10.50;99.90
44705;DHT22;30431;48.520;9.046;2023-04-24T01:04:12;10.60;99.90
44705;DHT22;30431;48.520;9.046;2023-04-24T01:06:40;10.60;99.90
44705;DHT22;30431;48.520;9.046;2023-04-24T01:09:07;10.60;99.90
44705;DHT22;30431;48.520;9.046;2023-04-24T01:11:36;10.60;99.90
44705;DHT22;30431;48.520;9.046;2023-04-24T01:14:04;10.70;99.90
44705;DHT22;30431;48.520;9.046;2023-04-24T01:16:33;10.70;99.90
44705;DHT22;30431;48.520;9.046;2023-04-24T01:19:01;10.70;99.90
44705;DHT22;30431;48.520;9.046;2023-04-24T01:21:29;10.60;99.90
44705;DHT22;30431;48.520;9.046;2023-04-24T01:23:57;10.50;99.90
44705;DHT22;30431;48.520;9.046;2023-04-24T01:26:24;10.50;99.90
44705;DHT22;30431;48.520;9.046;2023-04-24T01:28:54;10.40;99.90
44705;DHT22;30431;48.520;9.046;2023-04-24T01:31:22;10.30;99.90
44705;DHT22;30431;48.520;9.046;2023-04-24T01:33:51;10.10;99.90
44705;DHT22;30431;48.520;9.046;2023-04-24T01:36:19;10.10;99.90
44705;DHT22;30431;48.520;9.046;2023-04-24T01:38:49;10.10;99.90
44705;DHT22;30431;48.520;9.046;2023-04-24T01:41:18;10.10;99.90
44705;DHT22;30431;48.520;9.046;2023-04-24T01:43:45;10.20;99.90
44705;DHT22;30431;48.520;9.046;2023-04-24T01:46:12;10.20;99.90
44705;DHT22;30431;48.520;9.046;2023-04-24T01:48:39;10.30;99.90
44705;DHT22;30431;48.520;9.046;2023-04-24T01:51:09;10.40;99.90
44705;DHT22;30431;48.520;9.046;2023-04-24T01:53:38;10.40;99.90
44705;DHT22;30431;48.520;9.046;2023-04-24T01:56:09;10.50;99.90
44705;DHT22;30431;48.520;9.046;2023-04-24T01:58:35;10.50;99.90
44705;DHT22;30431;48.520;9.046;2023-04-24T02:01:06;10.60;99.90
44705;DHT22;30431;48.520;9.046;2023-04-24T02:03:39;10.60;99.90
44705;DHT22;30431;48.520;9.046;2023-04-24T02:06:06;10.60;99.90
44705;DHT22;30431;48.520;9.046;2023-04-24T02:08:35;10.60;99.90
44705;DHT22;30431;48.520;9.046;2023-04-24T02:11:02;10.60;99.90
44705;DHT22;30431;48.520;9.046;2023-04-24T02:13:31;10.60;99.90
44705;DHT22;30431;48.520;9.046;2023-04-24T02:16:00;10.60;99.90
44705;DHT22;30431;48.520;9.046;2023-04-24T02:18:29;10.50;99.90
44705;DHT22;30431;48.520;9.046;2023-04-24T02:20:56;10.40;99.90
44705;DHT22;30431;48.520;9.046;2023-04-24T02:23:23;10.40;99.90
44705;DHT22;30431;48.520;9.046;2023-04-24T02:25:53;10.40;99.90
44705;DHT22;30431;48.520;9.046;2023-04-24T02:28:20;10.40;99.90
44705;DHT22;30431;48.520;9.046;2023-04-24T02:30:50;10.30;99.90
44705;DHT22;30431;48.520;9.046;2023-04-24T02:33:17;10.30;99.90
44705;DHT22;30431;48.520;9.046;2023-04-24T02:35:45;10.20;99.90
44705;DHT22;30431;48.520;9.046;2023-04-24T02:38:12;10.20;99.90
44705;DHT22;30431;48.520;9.046;2023-04-24T02:40:39;10.10;99.90
44705;DHT22;30431;48.520;9.046;2023-04-24T02:43:09;10.10;99.90
44705;DHT22;30431;48.520;9.046;2023-04-24T02:45:36;10.20;99.90
44705;DHT22;30431;48.520;9.046;2023-04-24T02:48:08;10.20;99.90
44705;DHT22;30431;48.520;9.046;2023-04-24T02:50:35;10.30;99.90
44705;DHT22;30431;48.520;9.046;2023-04-24T02:53:02;10.30;99.90
44705;DHT22;30431;48.520;9.046;2023-04-24T02:55:32;10.40;99.90
44705;DHT22;30431;48.520;9.046;2023-04-24T02:58:01;10.40;99.90
44705;DHT22;30431;48.520;9.046;2023-04-24T03:00:28;10.50;99.90
44705;DHT22;30431;48.520;9.046;2023-04-24T03:02:55;10.50;99.90
44705;DHT22;30431;48.520;9.046;2023-04-24T03:05:23;10.60;99.90
44705;DHT22;30431;48.520;9.046;2023-04-24T03:07:49;10.50;99.90
44705;DHT22;30431;48.520;9.046;2023-04-24T03:10:20;10.50;99.90
44705;DHT22;30431;48.520;9.046;2023-04-24T03:12:49;10.50;99.90
44705;DHT22;30431;48.520;9.046;2023-04-24T03:15:18;10.40;99.90
44705;DHT22;30431;48.520;9.046;2023-04-24T03:17:44;10.40;99.90
44705;DHT22;30431;48.520;9.046;2023-04-24T03:20:14;10.40;99.90
44705;DHT22;30431;48.520;9.046;2023-04-24T03:22:42;10.40;99.90
44705;DHT22;30431;48.520;9.046;2023-04-24T03:25:10;10.50;99.90
44705;DHT22;30431;48.520;9.046;2023-04-24T03:27:39;10.40;99.90
44705;DHT22;30431;48.520;9.046;2023-04-24T03:30:15;10.40;99.90
44705;DHT22;30431;48.520;9.046;2023-04-24T03:32:50;10.30;99.90
44705;DHT22;30431;48.520;9.046;2023-04-24T03:35:22;10.20;99.90
44705;DHT22;30431;48.520;9.046;2023-04-24T03:37:50;10.10;99.90
44705;DHT22;30431;48.520;9.046;2023-04-24T03:40:36;10.00;99.90
44705;DHT22;30431;48.520;9.046;2023-04-24T03:43:11;10.00;99.90
44705;DHT22;30431;48.520;9.046;2023-04-24T03:45:38;10.00;99.90
44705;DHT22;30431;48.520;9.046;2023-04-24T03:48:05;9.90;99.90
44705;DHT22;30431;48.520;9.046;2023-04-24T03:50:33;9.80;99.90
44705;DHT22;30431;48.520;9.046;2023-04-24T03:53:03;9.70;99.90
44705;DHT22;30431;48.520;9.046;2023-04-24T03:55:39;9.50;99.90
44705;DHT22;30431;48.520;9.046;2023-04-24T03:58:06;9.30;99.90
44705;DHT22;30431;48.520;9.046;2023-04-24T04:00:32;9.10;99.90
44705;DHT22;30431;48.520;9.046;2023-04-24T04:03:21;9.00;99.90
44705;DHT22;30431;48.520;9.046;2023-04-24T04:05:51;8.90;99.90
44705;DHT22;30431;48.520;9.046;2023-04-24T04:08:21;8.90;99.90
44705;DHT22;30431;48.520;9.046;2023-04-24T04:10:50;9.00;99.90
44705;DHT22;30431;48.520;9.046;2023-04-24T04:13:17;9.10;99.90
44705;DHT22;30431;48.520;9.046;2023-04-24T04:15:48;9.30;99.90
44705;DHT22;30431;48.520;9.046;2023-04-24T04:18:18;9.40;99.90
44705;DHT22;30431;48.520;9.046;2023-04-24T04:20:45;9.50;99.90
44705;DHT22;30431;48.520;9.046;2023-04-24T04:23:14;9.60;99.90
44705;DHT22;30431;48.520;9.046;2023-04-24T04:25:53;9.70;99.90
44705;DHT22;30431;48.520;9.046;2023-04-24T04:28:26;9.70;99.90
44705;DHT22;30431;48.520;9.046;2023-04-24T04:30:53;9.80;99.90
44705;DHT22;30431;48.520;9.046;2023-04-24T04:33:25;9.90;99.90
44705;DHT22;30431;48.520;9.046;2023-04-24T04:35:55;9.90;99.90
44705;DHT22;30431;48.520;9.046;2023-04-24T04:38:27;10.00;99.90
44705;DHT22;30431;48.520;9.046;2023-04-24T04:41:17;10.00;99.90
44705;DHT22;30431;48.520;9.046;2023-04-24T04:43:48;10.00;99.90
44705;DHT22;30431;48.520;9.046;2023-04-24T04:46:18;10.00;99.90
44705;DHT22;30431;48.520;9.046;2023-04-24T04:49:05;10.00;99.90
44705;DHT22;30431;48.520;9.046;2023-04-24T04:51:35;9.90;99.90
44705;DHT22;30431;48.520;9.046;2023-04-24T04:54:03;9.90;99.90
44705;DHT22;30431;48.520;9.046;2023-04-24T04:56:34;9.90;99.90
44705;DHT22;30431;48.520;9.046;2023-04-24T04:59:01;10.00;99.90
44705;DHT22;30431;48.520;9.046;2023-04-24T05:01:29;10.10;99.90
44705;DHT22;30431;48.520;9.046;2023-04-24T05:03:56;10.10;99.90
44705;DHT22;30431;48.520;9.046;2023-04-24T05:06:23;10.10;99.90
44705;DHT22;30431;48.520;9.046;2023-04-24T05:08:53;10.20;99.90
44705;DHT22;30431;48.520;9.046;2023-04-24T05:11:46;10.10;99.90
44705;DHT22;30431;48.520;9.046;2023-04-24T05:14:13;10.10;99.90
44705;DHT22;30431;48.520;9.046;2023-04-24T05:16:42;10.20;99.90
44705;DHT22;30431;48.520;9.046;2023-04-24T05:19:10;10.20;99.90
44705;DHT22;30431;48.520;9.046;2023-04-24T05:21:43;10.10;99.90
44705;DHT22;30431;48.520;9.046;2023-04-24T05:24:11;10.10;99.90
44705;DHT22;30431;48.520;9.046;2023-04-24T05:26:48;10.10;99.90
44705;DHT22;30431;48.520;9.046;2023-04-24T05:29:22;10.10;99.90
44705;DHT22;30431;48.520;9.046;2023-04-24T05:31:51;10.10;99.90
44705;DHT22;30431;48.520;9.046;2023-04-24T05:34:19;10.10;99.90
44705;DHT22;30431;48.520;9.046;2023-04-24T05:36:50;10.10;99.90
44705;DHT22;30431;48.520;9.046;2023-04-24T05:39:19;10.10;99.90
44705;DHT22;30431;48.520;9.046;2023-04-24T05:41:50;10.10;99.90
44705;DHT22;30431;48.520;9.046;2023-04-24T05:44:19;10.10;99.90
44705;DHT22;30431;48.520;9.046;2023-04-24T05:46:54;10.20;99.90
44705;DHT22;30431;48.520;9.046;2023-04-24T05:49:23;10.20;99.90
44705;DHT22;30431;48.520;9.046;2023-04-24T05:51:52;10.30;99.90
44705;DHT22;30431;48.520;9.046;2023-04-24T05:54:19;10.40;99.90
44705;DHT22;30431;48.520;9.046;2023-04-24T05:56:46;10.50;99.90
44705;DHT22;30431;48.520;9.046;2023-04-24T05:59:20;10.60;99.90
44705;DHT22;30431;48.520;9.046;2023-04-24T06:01:47;10.60;99.90
44705;DHT22;30431;48.520;9.046;2023-04-24T06:04:20;10.70;99.90
44705;DHT22;30431;48.520;9.046;2023-04-24T06:06:48;10.60;99.90
44705;DHT22;30431;48.520;9.046;2023-04-24T06:09:22;10.40;99.90
44705;DHT22;30431;48.520;9.046;2023-04-24T06:11:54;10.30;99.90
44705;DHT22;30431;48.520;9.046;2023-04-24T06:14:31;10.10;99.90
44705;DHT22;30431;48.520;9.046;2023-04-24T06:17:15;10.00;99.90
44705;DHT22;30431;48.520;9.046;2023-04-24T06:19:43;10.00;99.90
44705;DHT22;30431;48.520;9.046;2023-04-24T06:22:10;10.00;99.90
44705;DHT22;30431;48.520;9.046;2023-04-24T06:24:40;10.00;99.90
44705;DHT22;30431;48.520;9.046;2023-04-24T06:27:07;10.00;99.90
44705;DHT22;30431;48.520;9.046;2023-04-24T06:29:35;10.00;99.90
44705;DHT22;30431;48.520;9.046;2023-04-24T06:32:02;10.10;99.90
44705;DHT22;30431;48.520;9.046;2023-04-24T06:34:29;10.30;99.90
44705;DHT22;30431;48.520;9.046;2023-04-24T06:36:57;10.40;99.90
44705;DHT22;30431;48.520;9.046;2023-04-24T06:39:24;10.60;99.90
44705;DHT22;30431;48.520;9.046;2023-04-24T06:41:51;10.90;99.90
44705;DHT22;30431;48.520;9.046;2023-04-24T06:44:19;11.40;99.90
44705;DHT22;30431;48.520;9.046;2023-04-24T06:46:46;12.00;99.90
44705;DHT22;30431;48.520;9.046;2023-04-24T06:49:13;12.50;99.90
44705;DHT22;30431;48.520;9.046;2023-04-24T06:51:45;12.80;99.90
44705;DHT22;30431;48.520;9.046;2023-04-24T06:54:14;13.20;99.90
44705;DHT22;30431;48.520;9.046;2023-04-24T06:56:41;13.40;99.90
44705;DHT22;30431;48.520;9.046;2023-04-24T06:59:10;13.60;99.90
44705;DHT22;30431;48.520;9.046;2023-04-24T07:01:37;13.90;99.90
44705;DHT22;30431;48.520;9.046;2023-04-24T07:04:04;14.30;99.90
44705;DHT22;30431;48.520;9.046;2023-04-24T07:06:31;14.40;99.90
44705;DHT22;30431;48.520;9.046;2023-04-24T07:09:01;14.70;99.90
44705;DHT22;30431;48.520;9.046;2023-04-24T07:11:30;14.40;99.90
44705;DHT22;30431;48.520;9.046;2023-04-24T07:14:01;14.40;99.90
44705;DHT22;30431;48.520;9.046;2023-04-24T07:16:28;14.20;99.90
44705;DHT22;30431;48.520;9.046;2023-04-24T07:18:57;14.10;99.90
44705;DHT22;30431;48.520;9.046;2023-04-24T07:21:26;14.30;99.90
44705;DHT22;30431;48.520;9.046;2023-04-24T07:23:53;14.30;99.90
44705;DHT22;30431;48.520;9.046;2023-04-24T07:26:23;14.30;99.90
44705;DHT22;30431;48.520;9.046;2023-04-24T07:28:52;14.10;99.90
44705;DHT22;30431;48.520;9.046;2023-04-24T07:31:19;13.90;99.90
44705;DHT22;30431;48.520;9.046;2023-04-24T07:33:48;13.50;99.00
44705;DHT22;30431;48.520;9.046;2023-04-24T07:36:17;13.40;99.90
44705;DHT22;30431;48.520;9.046;2023-04-24T07:38:46;13.80;99.90
44705;DHT22;30431;48.520;9.046;2023-04-24T07:41:13;14.00;99.90
44705;DHT22;30431;48.520;9.046;2023-04-24T07:43:41;13.90;98.40
44705;DHT22;30431;48.520;9.046;2023-04-24T07:46:08;13.80;97.40
44705;DHT22;30431;48.520;9.046;2023-04-24T07:48:36;13.80;97.70
44705;DHT22;30431;48.520;9.046;2023-04-24T07:51:05;13.50;97.40
44705;DHT22;30431;48.520;9.046;2023-04-24T07:53:39;13.40;98.10
44705;DHT22;30431;48.520;9.046;2023-04-24T07:56:06;13.30;97.40
44705;DHT22;30431;48.520;9.046;2023-04-24T07:58:34;13.40;98.00
44705;DHT22;30431;48.520;9.046;2023-04-24T08:01:01;13.50;97.70
44705;DHT22;30431;48.520;9.046;2023-04-24T08:03:32;13.70;97.10
44705;DHT22;30431;48.520;9.046;2023-04-24T08:06:03;13.80;96.80
44705;DHT22;30431;48.520;9.046;2023-04-24T08:08:30;13.60;94.80
44705;DHT22;30431;48.520;9.046;2023-04-24T08:10:57;13.60;93.80
44705;DHT22;30431;48.520;9.046;2023-04-24T08:13:25;13.50;94.00
44705;DHT22;30431;48.520;9.046;2023-04-24T08:15:59;13.60;93.80
44705;DHT22;30431;48.520;9.046;2023-04-24T08:18:26;13.70;94.00
44705;DHT22;30431;48.520;9.046;2023-04-24T08:21:01;13.30;92.60
44705;DHT22;30431;48.520;9.046;2023-04-24T08:23:29;12.80;92.40
44705;DHT22;30431;48.520;9.046;2023-04-24T08:25:56;12.70;92.60
44705;DHT22;30431;48.520;9.046;2023-04-24T08:28:26;12.50;93.00
44705;DHT22;30431;48.520;9.046;2023-04-24T08:30:56;12.40;93.30
44705;DHT22;30431;48.520;9.046;2023-04-24T08:33:23;12.40;93.40
44705;DHT22;30431;48.520;9.046;2023-04-24T08:35:51;12.40;93.00
44705;DHT22;30431;48.520;9.046;2023-04-24T08:38:18;12.30;93.90
44705;DHT22;30431;48.520;9.046;2023-04-24T08:40:45;12.30;93.80
44705;DHT22;30431;48.520;9.046;2023-04-24T08:43:15;12.40;92.80
44705;DHT22;30431;48.520;9.046;2023-04-24T08:45:45;12.50;93.20
44705;DHT22;30431;48.520;9.046;2023-04-24T08:48:18;12.70;92.30
44705;DHT22;30431;48.520;9.046;2023-04-24T08:50:58;13.20;92.20
44705;DHT22;30431;48.520;9.046;2023-04-24T08:53:26;14.10;90.50
44705;DHT22;30431;48.520;9.046;2023-04-24T08:55:54;14.30;86.50
44705;DHT22;30431;48.520;9.046;2023-04-24T08:58:25;14.70;86.40
44705;DHT22;30431;48.520;9.046;2023-04-24T09:00:55;14.70;84.70
44705;DHT22;30431;48.520;9.046;2023-04-24T09:03:22;14.40;86.20
44705;DHT22;30431;48.520;9.046;2023-04-24T09:05:54;13.80;86.10
44705;DHT22;30431;48.520;9.046;2023-04-24T09:08:24;13.30;88.70
44705;DHT22;30431;48.520;9.046;2023-04-24T09:10:54;13.20;90.60
44705;DHT22;30431;48.520;9.046;2023-04-24T09:13:21;13.30;90.80
44705;DHT22;30431;48.520;9.046;2023-04-24T09:15:50;13.20;91.00
44705;DHT22;30431;48.520;9.046;2023-04-24T09:18:18;13.10;88.70
44705;DHT22;30431;48.520;9.046;2023-04-24T09:21:06;13.00;90.00
44705;DHT22;30431;48.520;9.046;2023-04-24T09:23:36;13.30;90.30
44705;DHT22;30431;48.520;9.046;2023-04-24T09:26:05;13.80;89.00
44705;DHT22;30431;48.520;9.046;2023-04-24T09:28:36;14.60;88.00
44705;DHT22;30431;48.520;9.046;2023-04-24T09:31:17;14.90;85.80
44705;DHT22;30431;48.520;9.046;2023-04-24T09:33:56;14.90;86.40
44705;DHT22;30431;48.520;9.046;2023-04-24T09:36:28;14.90;85.90
44705;DHT22;30431;48.520;9.046;2023-04-24T09:39:01;14.50;83.80
44705;DHT22;30431;48.520;9.046;2023-04-24T09:41:32;14.30;84.00
44705;DHT22;30431;48.520;9.046;2023-04-24T09:44:25;14.30;82.10
44705;DHT22;30431;48.520;9.046;2023-04-24T09:46:57;14.20;81.60
44705;DHT22;30431;48.520;9.046;2023-04-24T09:49:30;14.10;82.00
44705;DHT22;30431;48.520;9.046;2023-04-24T09:52:09;14.20;83.10
44705;DHT22;30431;48.520;9.046;2023-04-24T09:54:42;14.10;83.30
44705;DHT22;30431;48.520;9.046;2023-04-24T09:57:19;13.90;82.50
44705;DHT22;30431;48.520;9.046;2023-04-24T09:59:46;13.80;83.60
44705;DHT22;30431;48.520;9.046;2023-04-24T10:02:18;13.60;82.90
44705;DHT22;30431;48.520;9.046;2023-04-24T10:05:06;13.40;81.80
44705;DHT22;30431;48.520;9.046;2023-04-24T10:07:33;13.30;82.70
44705;DHT22;30431;48.520;9.046;2023-04-24T10:10:03;13.30;85.40
44705;DHT22;30431;48.520;9.046;2023-04-24T10:12:31;13.80;79.70
44705;DHT22;30431;48.520;9.046;2023-04-24T10:15:01;14.20;77.30
44705;DHT22;30431;48.520;9.046;2023-04-24T10:17:29;14.70;77.00
44705;DHT22;30431;48.520;9.046;2023-04-24T10:19:57;15.00;75.40
44705;DHT22;30431;48.520;9.046;2023-04-24T10:22:25;15.20;75.10
44705;DHT22;30431;48.520;9.046;2023-04-24T10:24:54;15.50;73.10
44705;DHT22;30431;48.520;9.046;2023-04-24T10:27:23;15.60;72.20
44705;DHT22;30431;48.520;9.046;2023-04-24T10:29:53;15.80;71.90
44705;DHT22;30431;48.520;9.046;2023-04-24T10:32:20;16.00;70.90
44705;DHT22;30431;48.520;9.046;2023-04-24T10:34:47;15.80;71.40
44705;DHT22;30431;48.520;9.046;2023-04-24T10:37:15;15.30;72.20
44705;DHT22;30431;48.520;9.046;2023-04-24T10:39:42;15.30;71.90
44705;DHT22;30431;48.520;9.046;2023-04-24T10:42:15;14.80;70.60
44705;DHT22;30431;48.520;9.046;2023-04-24T10:44:43;14.60;72.00
44705;DHT22;30431;48.520;9.046;2023-04-24T10:47:14;14.50;73.30
44705;DHT22;30431;48.520;9.046;2023-04-24T10:49:41;14.60;74.00
44705;DHT22;30431;48.520;9.046;2023-04-24T10:52:08;14.60;76.00
44705;DHT22;30431;48.520;9.046;2023-04-24T10:54:45;14.60;76.80
44705;DHT22;30431;48.520;9.046;2023-04-24T11:00:14;14.70;77.50
44705;DHT22;30431;48.520;9.046;2023-04-24T11:02:41;14.90;77.60
44705;DHT22;30431;48.520;9.046;2023-04-24T11:05:17;14.90;76.20
44705;DHT22;30431;48.520;9.046;2023-04-24T11:08:13;14.80;76.80
44705;DHT22;30431;48.520;9.046;2023-04-24T11:10:45;15.00;77.30
44705;DHT22;30431;48.520;9.046;2023-04-24T11:13:21;15.30;76.50
44705;DHT22;30431;48.520;9.046;2023-04-24T11:16:31;15.40;75.50
44705;DHT22;30431;48.520;9.046;2023-04-24T11:21:53;15.10;77.40
44705;DHT22;30431;48.520;9.046;2023-04-24T11:32:37;15.40;73.10
44705;DHT22;30431;48.520;9.046;2023-04-24T11:35:21;15.00;74.20
44705;DHT22;30431;48.520;9.046;2023-04-24T11:37:52;14.50;75.60
44705;DHT22;30431;48.520;9.046;2023-04-24T11:40:40;14.40;76.30
44705;DHT22;30431;48.520;9.046;2023-04-24T11:43:09;14.20;77.50
44705;DHT22;30431;48.520;9.046;2023-04-24T11:45:48;14.10;77.50
44705;DHT22;30431;48.520;9.046;2023-04-24T11:48:21;14.30;77.50
44705;DHT22;30431;48.520;9.046;2023-04-24T11:50:49;14.40;76.70
44705;DHT22;30431;48.520;9.046;2023-04-24T11:53:19;14.60;76.50
44705;DHT22;30431;48.520;9.046;2023-04-24T11:55:48;14.90;76.60
44705;DHT22;30431;48.520;9.046;2023-04-24T11:58:15;14.80;73.50
44705;DHT22;30431;48.520;9.046;2023-04-24T12:00:56;14.60;74.10
44705;DHT22;30431;48.520;9.046;2023-04-24T12:03:23;14.40;74.70
44705;DHT22;30431;48.520;9.046;2023-04-24T12:05:50;14.70;75.40
44705;DHT22;30431;48.520;9.046;2023-04-24T12:08:30;15.10;75.30
44705;DHT22;30431;48.520;9.046;2023-04-24T12:11:01;14.90;75.30
44705;DHT22;30431;48.520;9.046;2023-04-24T12:13:28;14.80;76.60
44705;DHT22;30431;48.520;9.046;2023-04-24T12:15:57;14.40;76.90
44705;DHT22;30431;48.520;9.046;2023-04-24T12:18:24;14.00;75.50
44705;DHT22;30431;48.520;9.046;2023-04-24T12:20:54;13.80;78.00
44705;DHT22;30431;48.520;9.046;2023-04-24T12:23:35;13.80;77.90
44705;DHT22;30431;48.520;9.046;2023-04-24T12:26:05;13.60;77.80
44705;DHT22;30431;48.520;9.046;2023-04-24T12:28:37;13.20;79.50
44705;DHT22;30431;48.520;9.046;2023-04-24T12:31:04;13.10;80.30
44705;DHT22;30431;48.520;9.046;2023-04-24T12:33:35;13.10;79.80
44705;DHT22;30431;48.520;9.046;2023-04-24T12:36:03;13.20;80.30
44705;DHT22;30431;48.520;9.046;2023-04-24T12:38:30;13.50;79.00
44705;DHT22;30431;48.520;9.046;2023-04-24T12:41:05;13.50;78.50
44705;DHT22;30431;48.520;9.046;2023-04-24T12:43:33;13.80;77.60
44705;DHT22;30431;48.520;9.046;2023-04-24T12:46:00;14.20;76.70
44705;DHT22;30431;48.520;9.046;2023-04-24T12:48:30;14.70;74.80
44705;DHT22;30431;48.520;9.046;2023-04-24T12:50:58;15.20;74.20
44705;DHT22;30431;48.520;9.046;2023-04-24T12:53:28;15.70;72.60
44705;DHT22;30431;48.520;9.046;2023-04-24T12:56:01;15.60;72.80
44705;DHT22;30431;48.520;9.046;2023-04-24T12:58:28;15.30;73.00
44705;DHT22;30431;48.520;9.046;2023-04-24T13:00:58;15.00;72.50
44705;DHT22;30431;48.520;9.046;2023-04-24T13:03:25;14.40;74.60
44705;DHT22;30431;48.520;9.046;2023-04-24T13:05:57;13.90;77.60
44705;DHT22;30431;48.520;9.046;2023-04-24T13:08:33;13.50;78.60
44705;DHT22;30431;48.520;9.046;2023-04-24T13:11:08;13.40;78.50
44705;DHT22;30431;48.520;9.046;2023-04-24T13:13:38;13.70;77.80
44705;DHT22;30431;48.520;9.046;2023-04-24T13:16:07;13.80;77.20
44705;DHT22;30431;48.520;9.046;2023-04-24T13:18:34;13.60;76.20
44705;DHT22;30431;48.520;9.046;2023-04-24T13:21:02;13.70;76.50
44705;DHT22;30431;48.520;9.046;2023-04-24T13:23:33;13.70;75.80
44705;DHT22;30431;48.520;9.046;2023-04-24T13:26:01;13.90;76.00
44705;DHT22;30431;48.520;9.046;2023-04-24T13:28:29;13.80;75.90
44705;DHT22;30431;48.520;9.046;2023-04-24T13:30:59;13.60;75.50
44705;DHT22;30431;48.520;9.046;2023-04-24T13:33:26;13.50;77.50
44705;DHT22;30431;48.520;9.046;2023-04-24T13:35:53;13.50;77.50
44705;DHT22;30431;48.520;9.046;2023-04-24T13:38:20;13.50;78.00
44705;DHT22;30431;48.520;9.046;2023-04-24T13:40:48;13.70;77.40
44705;DHT22;30431;48.520;9.046;2023-04-24T13:43:15;14.00;76.10
44705;DHT22;30431;48.520;9.046;2023-04-24T13:45:42;14.20;76.40
44705;DHT22;30431;48.520;9.046;2023-04-24T13:48:14;14.30;75.70
44705;DHT22;30431;48.520;9.046;2023-04-24T13:50:44;14.20;76.30
44705;DHT22;30431;48.520;9.046;2023-04-24T13:53:12;14.30;74.80
44705;DHT22;30431;48.520;9.046;2023-04-24T13:55:38;14.30;73.20
44705;DHT22;30431;48.520;9.046;2023-04-24T13:58:05;14.50;74.80
44705;DHT22;30431;48.520;9.046;2023-04-24T14:00:34;14.70;73.40
44705;DHT22;30431;48.520;9.046;2023-04-24T14:03:01;14.60;73.10
44705;DHT22;30431;48.520;9.046;2023-04-24T14:05:33;14.40;74.00
44705;DHT22;30431;48.520;9.046;2023-04-24T14:08:02;14.30;75.10
44705;DHT22;30431;48.520;9.046;2023-04-24T14:10:29;14.60;73.60
44705;DHT22;30431;48.520;9.046;2023-04-24T14:12:59;14.70;74.80
44705;DHT22;30431;48.520;9.046;2023-04-24T14:15:27;14.70;72.70
44705;DHT22;30431;48.520;9.046;2023-04-24T14:17:58;14.50;71.70
44705;DHT22;30431;48.520;9.046;2023-04-24T14:20:26;14.20;72.50
44705;DHT22;30431;48.520;9.046;2023-04-24T14:22:55;13.80;73.40
44705;DHT22;30431;48.520;9.046;2023-04-24T14:25:25;13.70;74.90
44705;DHT22;30431;48.520;9.046;2023-04-24T14:27:55;13.70;75.40
44705;DHT22;30431;48.520;9.046;2023-04-24T14:30:24;13.60;75.80
44705;DHT22;30431;48.520;9.046;2023-04-24T14:32:51;13.60;74.90
44705;DHT22;30431;48.520;9.046;2023-04-24T14:35:18;13.50;75.80
44705;DHT22;30431;48.520;9.046;2023-04-24T14:37:46;13.40;74.90
44705;DHT22;30431;48.520;9.046;2023-04-24T14:40:13;13.40;76.20
44705;DHT22;30431;48.520;9.046;2023-04-24T14:43:00;13.20;76.40
44705;DHT22;30431;48.520;9.046;2023-04-24T14:45:27;13.40;77.60
44705;DHT22;30431;48.520;9.046;2023-04-24T14:47:59;13.40;77.00
44705;DHT22;30431;48.520;9.046;2023-04-24T14:50:26;13.40;78.00
44705;DHT22;30431;48.520;9.046;2023-04-24T14:52:55;13.50;78.60
44705;DHT22;30431;48.520;9.046;2023-04-24T14:55:25;13.50;76.50
44705;DHT22;30431;48.520;9.046;2023-04-24T14:57:52;13.50;76.20
44705;DHT22;30431;48.520;9.046;2023-04-24T15:00:20;13.30;76.70
44705;DHT22;30431;48.520;9.046;2023-04-24T15:02:47;13.40;75.80
44705;DHT22;30431;48.520;9.046;2023-04-24T15:05:14;13.60;77.40
44705;DHT22;30431;48.520;9.046;2023-04-24T15:07:42;13.70;75.70
44705;DHT22;30431;48.520;9.046;2023-04-24T15:10:09;13.80;75.60
44705;DHT22;30431;48.520;9.046;2023-04-24T15:12:36;13.80;75.80
44705;DHT22;30431;48.520;9.046;2023-04-24T15:15:04;13.90;74.60
44705;DHT22;30431;48.520;9.046;2023-04-24T15:17:36;13.80;75.30
44705;DHT22;30431;48.520;9.046;2023-04-24T15:20:04;13.90;75.60
44705;DHT22;30431;48.520;9.046;2023-04-24T15:22:33;13.90;75.20
44705;DHT22;30431;48.520;9.046;2023-04-24T15:25:00;14.10;75.30
44705;DHT22;30431;48.520;9.046;2023-04-24T15:27:40;14.20;74.50
44705;DHT22;30431;48.520;9.046;2023-04-24T15:30:10;14.10;75.00
44705;DHT22;30431;48.520;9.046;2023-04-24T15:32:39;14.00;74.60
44705;DHT22;30431;48.520;9.046;2023-04-24T15:35:07;14.10;75.70
44705;DHT22;30431;48.520;9.046;2023-04-24T15:37:37;14.10;74.60
44705;DHT22;30431;48.520;9.046;2023-04-24T15:40:05;14.20;75.50
44705;DHT22;30431;48.520;9.046;2023-04-24T15:42:34;13.90;75.60
44705;DHT22;30431;48.520;9.046;2023-04-24T15:45:02;13.80;76.70
44705;DHT22;30431;48.520;9.046;2023-04-24T15:47:31;13.70;76.90
44705;DHT22;30431;48.520;9.046;2023-04-24T15:50:02;13.80;77.00
44705;DHT22;30431;48.520;9.046;2023-04-24T15:52:31;13.90;77.50
44705;DHT22;30431;48.520;9.046;2023-04-24T15:54:58;13.80;75.80
44705;DHT22;30431;48.520;9.046;2023-04-24T15:57:25;13.70;75.70
44705;DHT22;30431;48.520;9.046;2023-04-24T15:59:54;13.80;75.30
44705;DHT22;30431;48.520;9.046;2023-04-24T16:02:22;13.90;75.10
44705;DHT22;30431;48.520;9.046;2023-04-24T16:04:53;14.00;76.30